Time;durP1;ratioP1;P1;durP2;ratioP2;P2;SDS_P1;SDS_P2;PMS_P1;PMS_P2;Temp;Humidity;BMP_temperature;BMP_pressure;BME280_temperature;BME280_humidity;BME280_pressure;Samples;Min_cycle;Max_cycle;Signal;HPM_P1;HPM_P2
2023/12/01 00:01:13;;;;;;;24.90;16.17;;;-1.30;99.90;;;;;;5032714;28;20299;-52
2023/12/01 00:03:39;;;;;;;18.60;14.97;;;-1.20;99.90;;;;;;5021888;28;20219;-54
2023/12/01 00:06:04;;;;;;;21.80;14.87;;;-1.00;99.90;;;;;;5032803;28;20237;-54
2023/12/01 00:08:30;;;;;;;25.50;15.20;;;-0.80;99.90;;;;;;5022568;28;20203;-54
2023/12/01 00:10:55;;;;;;;25.23;16.37;;;-0.70;99.90;;;;;;5032708;28;20206;-53
2023/12/01 00:13:21;;;;;;;21.80;15.33;;;-0.70;99.90;;;;;;5021472;28;20205;-65
2023/12/01 00:15:47;;;;;;;23.30;15.43;;;-0.60;99.90;;;;;;5031350;28;20201;-53
2023/12/01 00:18:13;;;;;;;21.77;14.60;;;-0.60;99.90;;;;;;5032262;28;20698;-53
2023/12/01 00:20:39;;;;;;;22.70;15.80;;;-0.60;99.90;;;;;;5031739;28;20207;-64
2023/12/01 00:23:04;;;;;;;21.50;16.03;;;-0.70;99.90;;;;;;5032350;28;20295;-62
2023/12/01 00:25:29;;;;;;;22.33;16.73;;;-0.80;99.90;;;;;;5017600;28;20906;-54
2023/12/01 00:27:55;;;;;;;21.83;17.00;;;-1.00;99.90;;;;;;5016459;28;20285;-54
2023/12/01 00:30:21;;;;;;;26.13;16.70;;;-1.20;99.90;;;;;;5018325;28;20200;-54
2023/12/01 00:32:47;;;;;;;23.27;14.70;;;-1.20;99.90;;;;;;5029787;28;20213;-53
2023/12/01 00:35:12;;;;;;;22.87;16.57;;;-1.20;99.90;;;;;;5032510;28;20208;-53
2023/12/01 00:37:38;;;;;;;20.13;15.23;;;-1.10;99.90;;;;;;5031588;28;20216;-54
2023/12/01 00:40:06;;;;;;;21.17;14.97;;;-1.10;99.90;;;;;;5019100;28;20223;-54
2023/12/01 00:42:32;;;;;;;22.43;15.03;;;-1.20;99.90;;;;;;5029366;28;20197;-55
2023/12/01 00:44:58;;;;;;;19.37;13.80;;;-1.20;99.90;;;;;;5031599;28;20211;-54
2023/12/01 00:47:23;;;;;;;16.23;13.07;;;-1.10;99.90;;;;;;5029334;28;20194;-53
2023/12/01 00:49:48;;;;;;;19.77;14.00;;;-1.00;99.90;;;;;;5031825;28;20682;-53
2023/12/01 00:52:14;;;;;;;17.63;12.87;;;-0.90;99.90;;;;;;5031167;28;20612;-54
2023/12/01 00:54:41;;;;;;;21.67;14.50;;;-0.80;99.90;;;;;;5031784;28;20743;-54
2023/12/01 00:57:07;;;;;;;19.80;12.90;;;-0.70;99.90;;;;;;5013731;28;20243;-54
2023/12/01 00:59:32;;;;;;;18.63;13.37;;;-0.50;99.90;;;;;;5018048;28;20257;-53
2023/12/01 01:01:58;;;;;;;18.77;12.90;;;-0.50;99.90;;;;;;5032959;28;20220;-53
2023/12/01 01:04:23;;;;;;;17.87;12.47;;;-0.60;99.90;;;;;;5031293;28;20911;-56
2023/12/01 01:06:49;;;;;;;18.53;12.83;;;-0.50;99.90;;;;;;5031646;28;20842;-53
2023/12/01 01:09:15;;;;;;;17.67;12.07;;;-0.40;99.90;;;;;;5016968;28;21167;-52
2023/12/01 01:11:40;;;;;;;18.20;13.07;;;-0.60;99.90;;;;;;5015517;28;20208;-53
2023/12/01 01:14:06;;;;;;;17.63;11.57;;;-1.10;99.90;;;;;;5032878;28;20222;-53
2023/12/01 01:16:31;;;;;;;16.97;11.57;;;-1.10;99.90;;;;;;5032166;28;20219;-53
2023/12/01 01:18:57;;;;;;;15.37;12.77;;;-1.10;99.90;;;;;;5030983;28;20341;-53
2023/12/01 01:21:23;;;;;;;16.43;10.53;;;-1.10;99.90;;;;;;5018389;28;20655;-53
2023/12/01 01:23:48;;;;;;;17.73;12.23;;;-1.10;99.90;;;;;;5031004;28;20847;-53
2023/12/01 01:26:14;;;;;;;17.17;13.00;;;-0.90;99.90;;;;;;5031122;28;20203;-53
2023/12/01 01:28:40;;;;;;;15.17;11.37;;;-0.80;99.90;;;;;;5031112;28;20706;-53
2023/12/01 01:31:06;;;;;;;20.63;11.60;;;-0.80;99.90;;;;;;5032903;28;20211;-53
2023/12/01 01:33:32;;;;;;;15.03;11.07;;;-0.90;99.90;;;;;;5032685;28;20682;-53
2023/12/01 01:35:57;;;;;;;17.67;13.77;;;-0.90;99.90;;;;;;5031019;28;20210;-52
2023/12/01 01:38:23;;;;;;;14.83;11.33;;;-0.80;99.90;;;;;;5030785;28;20805;-53
2023/12/01 01:40:48;;;;;;;18.97;11.77;;;-0.70;99.90;;;;;;5014586;28;20190;-53
2023/12/01 01:43:24;;;;;;;14.33;11.57;;;-0.60;99.90;;;;;;5030836;28;20551;-53
2023/12/01 01:46:00;;;;;;;11.73;10.30;;;-0.60;99.90;;;;;;5027979;28;20279;-58
2023/12/01 01:48:27;;;;;;;15.10;10.33;;;-0.50;99.90;;;;;;5029477;28;20199;-52
2023/12/01 01:50:53;;;;;;;13.73;10.33;;;-0.50;99.90;;;;;;5018158;28;20201;-53
2023/12/01 01:53:19;;;;;;;14.70;11.03;;;-0.80;99.90;;;;;;5017292;28;20309;-53
2023/12/01 01:55:45;;;;;;;14.53;10.50;;;-1.00;99.90;;;;;;5031140;28;20723;-59
2023/12/01 01:58:12;;;;;;;17.63;12.50;;;-1.20;99.90;;;;;;5020133;28;20934;-52
2023/12/01 02:00:38;;;;;;;15.33;10.60;;;-1.20;99.90;;;;;;5028984;28;20202;-52
2023/12/01 02:03:04;;;;;;;20.37;13.37;;;-1.20;99.90;;;;;;5030626;28;20571;-53
2023/12/01 02:05:33;;;;;;;16.23;12.23;;;-1.10;99.90;;;;;;5031084;28;20236;-53
2023/12/01 02:08:19;;;;;;;17.50;11.07;;;-1.10;99.90;;;;;;5030906;28;20210;-53
2023/12/01 02:10:45;;;;;;;17.13;11.33;;;-1.00;99.90;;;;;;5028465;28;20317;-53
2023/12/01 02:13:10;;;;;;;15.40;12.50;;;-1.00;99.90;;;;;;5030783;28;20760;-53
2023/12/01 02:15:36;;;;;;;17.47;12.90;;;-0.90;99.90;;;;;;5030605;28;20222;-53
2023/12/01 02:18:01;;;;;;;17.63;12.33;;;-1.00;99.90;;;;;;5030767;28;20234;-53
2023/12/01 02:20:27;;;;;;;18.57;12.73;;;-1.30;99.90;;;;;;5022966;28;20271;-53
2023/12/01 02:22:52;;;;;;;21.57;13.07;;;-1.40;99.90;;;;;;5030534;28;20287;-53
2023/12/01 02:25:18;;;;;;;18.30;12.77;;;-1.60;99.90;;;;;;5030957;28;20218;-55
2023/12/01 02:27:43;;;;;;;23.10;13.90;;;-1.80;99.90;;;;;;5031884;28;20977;-53
2023/12/01 02:30:12;;;;;;;17.60;11.97;;;-1.80;99.90;;;;;;5030245;28;20199;-53
2023/12/01 02:32:39;;;;;;;16.10;12.50;;;-1.70;99.90;;;;;;5030236;28;20206;-53
2023/12/01 02:35:09;;;;;;;16.70;11.97;;;-1.90;99.90;;;;;;5029884;28;20584;-53
2023/12/01 02:37:34;;;;;;;20.00;13.43;;;-2.10;99.90;;;;;;5030289;28;20236;-52
2023/12/01 02:40:00;;;;;;;19.17;13.23;;;-2.00;99.90;;;;;;5030180;28;20911;-53
2023/12/01 02:42:25;;;;;;;16.13;12.67;;;-1.90;99.90;;;;;;5030241;28;20676;-54
2023/12/01 02:44:52;;;;;;;16.73;12.47;;;-1.80;99.90;;;;;;5029824;28;20598;-54
2023/12/01 02:47:17;;;;;;;16.43;11.60;;;-1.70;99.90;;;;;;5023535;28;20192;-52
2023/12/01 02:49:43;;;;;;;16.63;11.43;;;-1.80;99.90;;;;;;5013085;28;20931;-52
2023/12/01 02:52:08;;;;;;;18.97;12.33;;;-1.60;99.90;;;;;;5019509;28;20649;-53
2023/12/01 02:54:34;;;;;;;15.73;12.53;;;-1.70;99.90;;;;;;5030288;28;20208;-52
2023/12/01 02:56:59;;;;;;;14.33;10.10;;;-1.80;99.90;;;;;;5030419;28;20227;-52
2023/12/01 02:59:25;;;;;;;15.97;10.80;;;-1.80;99.90;;;;;;5032055;28;20230;-52
2023/12/01 03:01:50;;;;;;;16.50;10.83;;;-1.80;99.90;;;;;;5030343;28;20232;-53
2023/12/01 03:04:15;;;;;;;16.97;12.53;;;-1.70;99.90;;;;;;5030426;28;20693;-66
2023/12/01 03:06:41;;;;;;;15.33;11.07;;;-1.50;99.90;;;;;;5030417;28;20235;-65
2023/12/01 03:09:16;;;;;;;17.03;11.13;;;-1.50;99.90;;;;;;5030411;28;20203;-54
2023/12/01 03:11:42;;;;;;;16.43;11.33;;;-1.60;99.90;;;;;;5017806;28;20751;-52
2023/12/01 03:14:07;;;;;;;15.00;10.40;;;-1.80;99.90;;;;;;5030440;28;20199;-53
2023/12/01 03:16:33;;;;;;;21.43;11.47;;;-1.90;99.90;;;;;;5033040;28;20219;-56
2023/12/01 03:18:58;;;;;;;13.93;9.93;;;-1.80;99.90;;;;;;5016874;28;20212;-54
2023/12/01 03:21:24;;;;;;;18.40;11.00;;;-1.70;99.90;;;;;;5035149;28;20771;-54
2023/12/01 03:23:49;;;;;;;16.73;11.23;;;-1.80;99.90;;;;;;5033375;28;20275;-53
2023/12/01 03:26:16;;;;;;;12.93;9.87;;;-1.90;99.90;;;;;;5033687;28;20269;-53
2023/12/01 03:28:42;;;;;;;14.00;9.40;;;-1.90;99.90;;;;;;5033015;28;20196;-51
2023/12/01 03:31:08;;;;;;;14.33;10.53;;;-1.90;99.90;;;;;;5033639;28;20857;-52
2023/12/01 03:33:33;;;;;;;10.77;8.23;;;-2.00;99.90;;;;;;5033475;28;20265;-53
2023/12/01 03:35:59;;;;;;;10.70;9.10;;;-1.80;99.90;;;;;;5035257;28;20702;-53
2023/12/01 03:38:24;;;;;;;13.07;9.80;;;-1.70;99.90;;;;;;5033209;28;20289;-53
2023/12/01 03:40:50;;;;;;;16.07;10.07;;;-1.60;99.90;;;;;;5024326;28;20209;-52
2023/12/01 03:43:15;;;;;;;11.10;8.73;;;-1.60;99.90;;;;;;5022085;28;20195;-53
2023/12/01 03:45:41;;;;;;;15.33;8.77;;;-1.90;99.90;;;;;;5030098;28;20986;-54
2023/12/01 03:48:07;;;;;;;11.23;9.17;;;-1.90;99.90;;;;;;5028818;28;20258;-61
2023/12/01 03:50:32;;;;;;;12.83;9.77;;;-1.80;99.90;;;;;;5033447;28;20195;-53
2023/12/01 03:52:58;;;;;;;12.40;9.97;;;-1.80;99.90;;;;;;5035486;28;20208;-53
2023/12/01 03:55:24;;;;;;;12.43;9.13;;;-2.00;99.90;;;;;;5018809;28;20585;-53
2023/12/01 03:57:49;;;;;;;12.50;8.10;;;-2.20;99.90;;;;;;5032563;28;20213;-53
2023/12/01 04:00:17;;;;;;;14.20;10.70;;;-2.20;99.90;;;;;;5020159;28;20207;-52
2023/12/01 04:02:44;;;;;;;14.53;8.83;;;-2.30;99.90;;;;;;5032605;28;20227;-53
2023/12/01 04:05:18;;;;;;;12.10;9.03;;;-2.40;99.90;;;;;;5033214;28;20211;-52
2023/12/01 04:07:45;;;;;;;10.23;8.63;;;-2.30;99.90;;;;;;5032606;28;20336;-53
2023/12/01 04:10:11;;;;;;;10.67;9.03;;;-2.20;99.90;;;;;;5032741;28;20556;-52
2023/12/01 04:12:44;;;;;;;12.50;9.57;;;-2.20;99.90;;;;;;5033852;28;20207;-52
2023/12/01 04:15:19;;;;;;;9.87;8.00;;;-2.50;99.90;;;;;;5029525;28;20200;-53
2023/12/01 04:17:47;;;;;;;11.03;8.03;;;-2.60;99.90;;;;;;5031946;28;20565;-53
2023/12/01 04:20:21;;;;;;;12.93;8.67;;;-2.70;99.90;;;;;;5023747;28;20921;-53
2023/12/01 04:22:57;;;;;;;12.50;8.63;;;-3.00;99.90;;;;;;5032495;28;20196;-53
2023/12/01 04:25:23;;;;;;;13.07;7.17;;;-3.10;99.90;;;;;;5021936;28;20282;-53
2023/12/01 04:27:50;;;;;;;9.50;6.67;;;-2.90;99.90;;;;;;5015513;28;20282;-53
2023/12/01 04:30:16;;;;;;;11.63;8.00;;;-2.80;99.90;;;;;;5032289;28;20840;-53
2023/12/01 04:32:52;;;;;;;11.80;8.57;;;-2.60;99.90;;;;;;5032723;28;20728;-53
2023/12/01 04:35:21;;;;;;;11.10;7.77;;;-2.50;99.90;;;;;;5029268;28;20666;-52
2023/12/01 04:37:46;;;;;;;11.13;7.60;;;-2.40;99.90;;;;;;5017623;28;20322;-52
2023/12/01 04:40:15;;;;;;;10.10;7.63;;;-2.40;99.90;;;;;;5031977;28;20683;-53
2023/12/01 04:42:48;;;;;;;12.90;8.77;;;-2.40;99.90;;;;;;5033838;28;20344;-53
2023/12/01 04:45:20;;;;;;;10.77;8.23;;;-2.50;99.90;;;;;;5014321;28;20245;-53
2023/12/01 04:47:50;;;;;;;14.37;9.60;;;-2.50;99.90;;;;;;5027587;28;20623;-53
2023/12/01 04:50:18;;;;;;;13.27;8.07;;;-2.60;99.90;;;;;;5033762;28;20775;-52
2023/12/01 04:52:45;;;;;;;11.50;7.90;;;-2.80;99.90;;;;;;5033286;28;20626;-52
2023/12/01 04:55:13;;;;;;;11.80;8.40;;;-2.70;99.90;;;;;;5031354;28;20213;-52
2023/12/01 04:57:39;;;;;;;13.67;9.37;;;-2.70;99.90;;;;;;5031745;28;20311;-52
2023/12/01 05:00:18;;;;;;;14.10;8.47;;;-2.60;99.90;;;;;;5031690;28;20211;-52
2023/12/01 05:02:47;;;;;;;13.10;8.50;;;-2.60;99.90;;;;;;5029671;28;20594;-52
2023/12/01 05:05:23;;;;;;;15.50;8.03;;;-2.50;99.90;;;;;;5017379;28;20570;-52
2023/12/01 05:07:51;;;;;;;11.83;9.27;;;-2.40;99.90;;;;;;5028822;28;20847;-53
2023/12/01 05:10:22;;;;;;;10.70;7.73;;;-2.60;99.90;;;;;;5030439;28;20935;-52
2023/12/01 05:12:49;;;;;;;13.50;8.63;;;-2.70;99.90;;;;;;5029057;28;20230;-52
2023/12/01 05:15:16;;;;;;;13.77;8.07;;;-2.80;99.90;;;;;;5013371;28;20345;-52
2023/12/01 05:17:47;;;;;;;10.00;8.17;;;-3.00;99.90;;;;;;5017332;28;20750;-53
2023/12/01 05:20:16;;;;;;;9.17;7.47;;;-3.10;99.90;;;;;;5031610;28;20270;-53
2023/12/01 05:22:47;;;;;;;10.77;7.83;;;-3.10;99.90;;;;;;5031409;28;20279;-53
2023/12/01 05:25:17;;;;;;;13.27;8.03;;;-3.10;99.90;;;;;;5031114;28;20658;-63
2023/12/01 05:27:48;;;;;;;9.93;8.03;;;-2.90;99.90;;;;;;5017116;28;20692;-53
2023/12/01 05:30:16;;;;;;;10.73;8.83;;;-2.90;99.90;;;;;;5031078;28;20557;-53
2023/12/01 05:32:48;;;;;;;10.30;7.60;;;-3.00;99.90;;;;;;5030704;28;20199;-53
2023/12/01 05:35:15;;;;;;;12.10;8.30;;;-2.90;99.90;;;;;;5030050;28;20288;-54
2023/12/01 05:37:47;;;;;;;13.13;7.60;;;-2.80;99.90;;;;;;5014407;28;20621;-52
2023/12/01 05:40:16;;;;;;;9.83;8.03;;;-2.80;99.90;;;;;;5020695;28;20213;-53
2023/12/01 05:42:43;;;;;;;12.70;7.90;;;-2.90;99.90;;;;;;5030456;28;20284;-53
2023/12/01 05:45:13;;;;;;;13.17;8.93;;;-2.90;99.90;;;;;;5026687;28;20206;-50
2023/12/01 05:47:47;;;;;;;10.67;7.67;;;-2.80;99.90;;;;;;5029892;28;20199;-52
2023/12/01 05:50:20;;;;;;;11.60;7.60;;;-2.70;99.90;;;;;;5028660;28;20299;-52
2023/12/01 05:52:46;;;;;;;11.43;8.47;;;-2.40;99.90;;;;;;5030296;28;20192;-52
2023/12/01 05:55:17;;;;;;;9.70;7.40;;;-2.40;99.90;;;;;;5021304;28;20491;-52
2023/12/01 05:57:44;;;;;;;11.03;8.03;;;-2.40;99.90;;;;;;5031223;28;20231;-53
2023/12/01 06:00:23;;;;;;;12.80;8.90;;;-2.40;99.90;;;;;;5031010;28;20704;-53
2023/12/01 06:02:50;;;;;;;20.30;8.60;;;-2.60;99.90;;;;;;5015096;28;20226;-52
2023/12/01 06:05:18;;;;;;;13.73;9.60;;;-2.70;99.90;;;;;;5030858;28;20290;-52
2023/12/01 06:07:45;;;;;;;11.03;8.27;;;-2.60;99.90;;;;;;5031100;28;20212;-52
2023/12/01 06:10:12;;;;;;;16.23;9.43;;;-2.40;99.90;;;;;;5030791;28;20206;-53
2023/12/01 06:12:38;;;;;;;9.00;7.90;;;-2.60;99.90;;;;;;5030701;28;20223;-53
2023/12/01 06:15:05;;;;;;;11.17;8.30;;;-2.90;99.90;;;;;;5031026;28;20211;-54
2023/12/01 06:17:31;;;;;;;13.20;7.40;;;-2.90;99.90;;;;;;5032199;28;20305;-53
2023/12/01 06:19:57;;;;;;;11.17;7.23;;;-2.80;99.90;;;;;;5032570;28;20299;-53
2023/12/01 06:22:23;;;;;;;10.70;7.13;;;-2.70;99.90;;;;;;5030032;28;20278;-53
2023/12/01 06:24:49;;;;;;;14.03;8.20;;;-2.60;99.90;;;;;;5030681;28;20210;-53
2023/12/01 06:27:14;;;;;;;10.03;7.53;;;-2.60;99.90;;;;;;5030763;28;20259;-53
2023/12/01 06:29:40;;;;;;;15.87;8.50;;;-2.60;99.90;;;;;;5030458;28;20744;-56
2023/12/01 06:32:06;;;;;;;12.17;8.20;;;-2.60;99.90;;;;;;5032158;28;20212;-53
2023/12/01 06:34:32;;;;;;;12.63;8.20;;;-3.00;99.90;;;;;;5019860;28;20203;-53
2023/12/01 06:36:59;;;;;;;12.87;9.17;;;-3.40;99.90;;;;;;5030325;28;20237;-53
2023/12/01 06:39:25;;;;;;;12.67;7.47;;;-3.30;99.90;;;;;;5030075;28;20203;-53
2023/12/01 06:41:53;;;;;;;10.70;8.77;;;-3.10;99.90;;;;;;5030160;28;20653;-53
2023/12/01 06:44:18;;;;;;;13.13;8.37;;;-3.60;99.90;;;;;;5030275;28;20277;-54
2023/12/01 06:46:45;;;;;;;11.23;8.17;;;-3.70;99.90;;;;;;5024059;28;20297;-53
2023/12/01 06:49:10;;;;;;;13.80;8.70;;;-3.70;99.90;;;;;;5033396;28;20191;-54
2023/12/01 06:51:36;;;;;;;12.23;8.57;;;-3.70;99.90;;;;;;5034132;28;20202;-53
2023/12/01 06:54:01;;;;;;;9.83;7.30;;;-3.90;99.90;;;;;;5034484;28;20816;-54
2023/12/01 06:56:27;;;;;;;11.43;7.80;;;-4.00;99.90;;;;;;5034056;28;20795;-54
2023/12/01 06:58:52;;;;;;;11.03;7.57;;;-3.90;99.90;;;;;;5034313;28;20213;-53
2023/12/01 07:01:19;;;;;;;13.13;8.00;;;-3.90;99.90;;;;;;5034260;28;20230;-53
2023/12/01 07:03:45;;;;;;;12.53;8.63;;;-4.00;99.90;;;;;;5033576;28;20202;-53
2023/12/01 07:06:12;;;;;;;11.20;7.83;;;-3.80;99.90;;;;;;5035356;28;20202;-53
2023/12/01 07:08:38;;;;;;;15.83;9.53;;;-3.60;99.90;;;;;;5043343;28;20209;-54
2023/12/01 07:11:04;;;;;;;12.97;8.47;;;-3.50;99.90;;;;;;5033703;28;20202;-53
2023/12/01 07:13:30;;;;;;;11.53;7.37;;;-3.90;99.90;;;;;;5033676;28;20267;-53
2023/12/01 07:15:56;;;;;;;13.00;8.17;;;-3.70;99.90;;;;;;5033610;28;20206;-55
2023/12/01 07:18:23;;;;;;;13.50;7.97;;;-3.80;99.90;;;;;;5033539;28;20616;-54
2023/12/01 07:20:48;;;;;;;12.30;8.73;;;-4.20;99.90;;;;;;5033303;28;20202;-53
2023/12/01 07:23:14;;;;;;;10.63;8.07;;;-4.40;99.90;;;;;;5020879;28;20205;-53
2023/12/01 07:25:40;;;;;;;9.77;7.53;;;-4.30;99.90;;;;;;5020971;28;20194;-52
2023/12/01 07:28:08;;;;;;;17.20;8.07;;;-4.20;99.90;;;;;;5033505;28;20198;-52
2023/12/01 07:30:34;;;;;;;13.30;9.70;;;-4.10;99.90;;;;;;5033366;28;20248;-52
2023/12/01 07:33:01;;;;;;;13.23;9.00;;;-3.90;99.90;;;;;;5033270;28;20206;-53
2023/12/01 07:35:27;;;;;;;11.47;8.47;;;-3.80;99.90;;;;;;5033535;28;20314;-53
2023/12/01 07:37:53;;;;;;;12.93;8.87;;;-3.70;99.90;;;;;;5016804;28;20628;-53
2023/12/01 07:40:19;;;;;;;10.27;7.87;;;-3.60;99.90;;;;;;5035100;28;20256;-52
2023/12/01 07:42:45;;;;;;;9.77;7.37;;;-3.80;99.90;;;;;;5032908;28;20213;-54
2023/12/01 07:45:14;;;;;;;11.60;8.40;;;-3.70;99.90;;;;;;5028602;28;20675;-53
2023/12/01 07:47:39;;;;;;;13.10;8.60;;;-3.80;99.90;;;;;;5032997;28;20225;-53
2023/12/01 07:50:05;;;;;;;13.10;8.63;;;-4.10;99.90;;;;;;5033170;28;20425;-53
2023/12/01 07:52:32;;;;;;;15.73;8.90;;;-4.50;99.90;;;;;;5019035;28;20285;-65
2023/12/01 07:54:58;;;;;;;11.80;9.03;;;-4.50;99.90;;;;;;5032775;28;20301;-53
2023/12/01 07:57:23;;;;;;;15.10;10.10;;;-4.60;99.90;;;;;;5033796;28;20757;-53
2023/12/01 07:59:48;;;;;;;14.13;9.80;;;-4.50;99.90;;;;;;5032599;28;20214;-54
2023/12/01 08:02:14;;;;;;;11.77;8.80;;;-4.40;99.90;;;;;;5031086;28;20317;-53
2023/12/01 08:04:40;;;;;;;11.90;9.43;;;-4.20;99.90;;;;;;5010380;28;20218;-53
2023/12/01 08:07:07;;;;;;;14.20;8.90;;;-4.00;99.90;;;;;;5032810;28;20206;-53
2023/12/01 08:09:33;;;;;;;12.73;8.93;;;-3.90;99.90;;;;;;5032885;28;20212;-53
2023/12/01 08:11:58;;;;;;;12.07;9.03;;;-3.90;99.90;;;;;;5025748;28;20739;-52
2023/12/01 08:14:25;;;;;;;13.07;9.17;;;-3.60;99.90;;;;;;5034507;28;20268;-54
2023/12/01 08:16:51;;;;;;;14.00;8.30;;;-3.50;99.90;;;;;;5032782;28;20303;-53
2023/12/01 08:19:17;;;;;;;14.87;8.93;;;-3.20;99.90;;;;;;5032835;28;20257;-53
2023/12/01 08:21:44;;;;;;;13.80;9.60;;;-3.10;99.90;;;;;;5032465;28;20207;-54
2023/12/01 08:24:10;;;;;;;11.40;9.20;;;-2.90;99.90;;;;;;5014726;28;20198;-54
2023/12/01 08:26:37;;;;;;;13.87;9.50;;;-2.90;99.90;;;;;;5032417;28;20211;-52
2023/12/01 08:29:02;;;;;;;16.10;9.87;;;-2.90;99.90;;;;;;5032321;28;20714;-52
2023/12/01 08:31:28;;;;;;;10.90;8.23;;;-2.80;99.90;;;;;;5033604;28;20207;-53
2023/12/01 08:33:53;;;;;;;14.57;9.80;;;-2.70;99.90;;;;;;5032169;28;20733;-54
2023/12/01 08:36:19;;;;;;;14.60;9.57;;;-2.50;99.90;;;;;;5032153;28;20206;-53
2023/12/01 08:38:44;;;;;;;15.63;10.50;;;-2.60;99.90;;;;;;5030135;28;20211;-54
2023/12/01 08:41:10;;;;;;;15.63;9.63;;;-2.70;99.90;;;;;;5016013;28;20257;-53
2023/12/01 08:43:36;;;;;;;13.93;9.00;;;-2.90;99.90;;;;;;5027625;28;20205;-53
2023/12/01 08:46:02;;;;;;;16.50;10.53;;;-3.10;99.90;;;;;;5030715;28;20653;-55
2023/12/01 08:48:28;;;;;;;15.70;9.67;;;-3.00;99.90;;;;;;5027158;28;20620;-66
2023/12/01 08:50:53;;;;;;;16.13;9.63;;;-3.00;99.90;;;;;;5030517;28;20203;-55
2023/12/01 08:53:22;;;;;;;16.27;10.83;;;-2.80;99.90;;;;;;5031356;28;20885;-54
2023/12/01 08:55:48;;;;;;;14.97;10.13;;;-3.20;99.90;;;;;;5031223;28;20809;-56
2023/12/01 08:58:13;;;;;;;16.83;9.50;;;-3.30;99.90;;;;;;5012731;28;20223;-54
2023/12/01 09:00:40;;;;;;;17.27;11.80;;;-3.60;99.90;;;;;;5028434;28;20329;-60
2023/12/01 09:03:06;;;;;;;14.67;9.77;;;-3.70;99.90;;;;;;5031630;28;20949;-53
2023/12/01 09:05:32;;;;;;;17.10;11.07;;;-3.60;99.90;;;;;;5031653;28;20237;-64
2023/12/01 09:07:59;;;;;;;21.80;12.67;;;-3.70;99.90;;;;;;5031871;28;20353;-56
2023/12/01 09:10:25;;;;;;;24.10;12.20;;;-3.90;99.90;;;;;;5031397;28;20711;-60
2023/12/01 09:12:51;;;;;;;16.20;10.43;;;-3.80;99.90;;;;;;5031097;28;20194;-55
2023/12/01 09:15:17;;;;;;;18.17;12.57;;;-3.90;99.90;;;;;;5031925;28;20199;-53
2023/12/01 09:17:42;;;;;;;18.40;11.97;;;-4.20;99.90;;;;;;5021058;28;20663;-53
2023/12/01 09:20:09;;;;;;;21.73;11.70;;;-3.80;99.90;;;;;;5031640;28;20214;-55
2023/12/01 09:22:36;;;;;;;20.70;11.70;;;-3.30;99.90;;;;;;5033057;28;20199;-54
2023/12/01 09:25:02;;;;;;;22.43;12.60;;;-3.10;99.90;;;;;;5014682;28;20278;-54
2023/12/01 09:27:27;;;;;;;20.27;13.23;;;-2.70;99.90;;;;;;5021982;28;20206;-53
2023/12/01 09:29:53;;;;;;;19.43;11.80;;;-2.50;99.90;;;;;;5024015;28;20258;-56
2023/12/01 09:32:19;;;;;;;23.57;13.83;;;-2.40;99.90;;;;;;5029035;28;20192;-53
2023/12/01 09:34:44;;;;;;;20.17;12.23;;;-2.40;99.90;;;;;;5029394;28;20995;-53
2023/12/01 09:37:10;;;;;;;21.70;12.00;;;-2.30;99.90;;;;;;5030673;28;20301;-53
2023/12/01 09:39:36;;;;;;;21.73;13.33;;;-2.20;99.90;;;;;;5032846;28;20543;-55
2023/12/01 09:42:06;;;;;;;20.17;12.90;;;-2.10;99.90;;;;;;5033334;28;20284;-54
2023/12/01 09:44:35;;;;;;;25.53;13.10;;;-2.10;99.90;;;;;;5018188;28;20758;-53
2023/12/01 09:47:02;;;;;;;23.17;13.80;;;-2.10;99.90;;;;;;5012992;28;20211;-53
2023/12/01 09:49:33;;;;;;;19.63;12.73;;;-2.10;99.90;;;;;;5038137;23;20316;-54
2023/12/01 09:52:02;;;;;;;22.50;13.57;;;-2.00;99.90;;;;;;5008825;28;20210;-53
2023/12/01 09:54:28;;;;;;;20.97;12.30;;;-2.00;99.90;;;;;;5002955;28;20210;-53
2023/12/01 09:56:57;;;;;;;22.77;13.47;;;-1.90;99.90;;;;;;5010175;28;20228;-53
2023/12/01 09:59:23;;;;;;;18.53;11.77;;;-1.70;99.90;;;;;;4997042;28;20812;-53
2023/12/01 10:01:50;;;;;;;16.23;11.87;;;-1.70;99.90;;;;;;5003096;28;20212;-54
2023/12/01 10:04:16;;;;;;;24.17;13.30;;;-1.70;99.90;;;;;;4990166;28;20208;-53
2023/12/01 10:06:41;;;;;;;18.20;11.43;;;-1.60;99.90;;;;;;5010677;28;20214;-53
2023/12/01 10:09:10;;;;;;;23.97;12.13;;;-1.80;99.90;;;;;;4993040;28;20296;-53
2023/12/01 10:11:36;;;;;;;16.40;10.80;;;-1.90;99.90;;;;;;5010965;28;20951;-54
2023/12/01 10:14:06;;;;;;;14.27;11.60;;;-2.10;99.90;;;;;;5006340;28;20215;-53
2023/12/01 10:16:34;;;;;;;16.57;11.37;;;-2.20;99.90;;;;;;5008513;28;20191;-53
2023/12/01 10:19:04;;;;;;;15.23;10.17;;;-2.20;99.90;;;;;;4992367;28;20295;-52
2023/12/01 10:21:51;;;;;;;18.03;11.10;;;-2.40;99.90;;;;;;5004379;28;20248;-54
2023/12/01 10:24:20;;;;;;;20.43;11.40;;;-2.00;99.90;;;;;;5011972;28;20306;-53
2023/12/01 10:26:47;;;;;;;18.60;11.40;;;-1.70;99.90;;;;;;5014799;28;20989;-53
2023/12/01 10:29:28;;;;;;;18.13;12.17;;;-1.20;99.90;;;;;;5013693;28;20214;-52
2023/12/01 10:31:55;;;;;;;14.77;10.83;;;-0.90;99.90;;;;;;5014301;28;20198;-54
2023/12/01 10:34:21;;;;;;;16.23;9.80;;;-1.20;99.90;;;;;;5015569;28;20253;-53
2023/12/01 10:36:48;;;;;;;19.83;11.03;;;-1.50;99.90;;;;;;5015643;28;20200;-53
2023/12/01 10:39:16;;;;;;;18.10;11.43;;;-1.40;99.90;;;;;;5013033;28;20201;-53
2023/12/01 10:41:44;;;;;;;19.43;11.47;;;-1.60;99.90;;;;;;5007902;28;20205;-52
2023/12/01 10:44:14;;;;;;;17.10;11.50;;;-1.70;99.90;;;;;;5000448;28;20220;-53
2023/12/01 10:46:40;;;;;;;19.13;12.00;;;-1.60;99.90;;;;;;5003904;28;20231;-54
2023/12/01 10:49:07;;;;;;;17.87;10.97;;;-1.50;99.90;;;;;;5008604;28;20228;-54
2023/12/01 10:51:33;;;;;;;14.20;10.87;;;-1.10;99.90;;;;;;5012237;28;20197;-53
2023/12/01 10:53:59;;;;;;;16.57;11.77;;;-1.00;99.90;;;;;;5009798;28;20390;-54
2023/12/01 10:56:27;;;;;;;14.07;10.43;;;-1.20;99.90;;;;;;5015967;28;20204;-53
2023/12/01 10:58:56;;;;;;;16.00;10.87;;;-1.30;99.90;;;;;;5010534;28;20379;-54
2023/12/01 11:01:23;;;;;;;16.87;10.17;;;-1.20;99.90;;;;;;4992764;28;20213;-53
2023/12/01 11:03:51;;;;;;;19.60;10.00;;;-1.00;99.90;;;;;;4998966;28;20205;-54
2023/12/01 11:06:33;;;;;;;14.13;8.90;;;-0.40;99.90;;;;;;4995662;28;20276;-53
2023/12/01 11:09:14;;;;;;;11.67;8.60;;;-0.50;99.90;;;;;;5009522;28;20210;-54
2023/12/01 11:11:58;;;;;;;11.13;8.27;;;-0.60;99.90;;;;;;5011645;28;20681;-53
2023/12/01 11:14:26;;;;;;;15.67;9.27;;;-0.50;99.90;;;;;;5009415;28;20194;-53
2023/12/01 11:16:53;;;;;;;10.53;8.50;;;0.20;99.90;;;;;;4995591;28;20748;-53
2023/12/01 11:19:18;;;;;;;13.60;9.73;;;0.70;99.90;;;;;;5013337;28;20243;-53
2023/12/01 11:21:44;;;;;;;12.97;8.63;;;1.40;99.90;;;;;;4999856;28;20273;-54
2023/12/01 11:24:31;;;;;;;13.43;8.90;;;1.70;99.90;;;;;;5011792;28;20241;-53
2023/12/01 11:27:03;;;;;;;12.77;9.10;;;2.40;99.90;;;;;;5006374;28;20670;-53
2023/12/01 11:29:30;;;;;;;12.63;8.40;;;1.90;99.90;;;;;;5012566;28;20200;-53
2023/12/01 11:31:57;;;;;;;13.80;9.30;;;2.30;99.90;;;;;;5000739;28;21017;-53
2023/12/01 11:34:25;;;;;;;12.77;8.93;;;2.00;99.90;;;;;;5013283;28;21068;-53
2023/12/01 11:36:52;;;;;;;9.93;8.03;;;1.40;99.90;;;;;;5007916;28;20219;-53
2023/12/01 11:41:49;;;;;;;11.10;8.27;;;-0.40;99.90;;;;;;5013168;28;20235;-53
2023/12/01 11:44:18;;;;;;;9.77;8.07;;;-1.10;99.90;;;;;;5002543;28;20238;-53
2023/12/01 11:46:45;;;;;;;16.80;9.53;;;-1.70;99.90;;;;;;4997228;28;20205;-52
2023/12/01 11:49:11;;;;;;;11.13;8.57;;;-2.00;99.90;;;;;;5012457;28;20313;-53
2023/12/01 11:51:36;;;;;;;15.70;10.57;;;-2.00;99.90;;;;;;5009571;28;20224;-54
2023/12/01 11:54:03;;;;;;;15.30;9.50;;;-1.90;99.90;;;;;;5006833;28;20221;-53
2023/12/01 11:56:31;;;;;;;14.30;9.57;;;-1.80;99.90;;;;;;5003132;28;20265;-53
2023/12/01 11:58:57;;;;;;;13.90;9.63;;;-1.70;99.90;;;;;;5007087;28;20232;-54
2023/12/01 12:01:22;;;;;;;12.70;8.27;;;-1.30;99.90;;;;;;5006868;28;20210;-53
2023/12/01 12:03:55;;;;;;;15.57;10.70;;;-1.70;99.90;;;;;;5012536;28;20207;-53
2023/12/01 12:06:23;;;;;;;16.60;10.23;;;-1.70;99.90;;;;;;5012503;28;20205;-53
2023/12/01 12:08:50;;;;;;;16.73;10.37;;;-1.50;99.90;;;;;;5005430;28;20205;-53
2023/12/01 12:11:16;;;;;;;13.47;9.47;;;-1.20;99.90;;;;;;5004713;28;20192;-53
2023/12/01 12:13:42;;;;;;;12.30;8.93;;;-0.90;99.90;;;;;;5014456;28;20209;-54
2023/12/01 12:16:08;;;;;;;13.53;10.17;;;-0.60;99.90;;;;;;5005772;28;20297;-53
2023/12/01 12:18:34;;;;;;;13.80;8.83;;;-0.60;99.90;;;;;;5004891;28;20838;-54
2023/12/01 12:21:03;;;;;;;15.73;10.23;;;-0.80;99.90;;;;;;4997257;28;20253;-53
2023/12/01 12:23:29;;;;;;;14.37;10.13;;;-0.90;99.90;;;;;;5007231;28;20198;-53
2023/12/01 12:26:16;;;;;;;14.50;9.97;;;-0.80;99.90;;;;;;5006994;28;20205;-52
2023/12/01 12:28:43;;;;;;;15.93;10.47;;;-0.80;99.90;;;;;;4992943;28;20205;-53
2023/12/01 12:31:09;;;;;;;14.87;10.30;;;-0.90;99.90;;;;;;5011936;28;20224;-53
2023/12/01 12:33:35;;;;;;;13.27;9.40;;;-0.80;99.90;;;;;;4998039;28;20214;-54
2023/12/01 12:36:02;;;;;;;12.77;9.73;;;-0.40;99.90;;;;;;5003697;28;21016;-54